Reeds Spring, MO (65737)

11:05 PM CST on November 23, 2014 (GMT -0600)
Branson West Weather | Change Station
CLOSE
Current Station
Personal Weather Station
Location: Reeds Spring, MO
Elevation: 1368 ft
Nearby Weather Stations

Elev 1368 ft 36.70 °N, 93.37 °W | Updated 0 second ago

Overcast
Overcast
43.5 °F
Feels Like 34 °F
N
25.3
Wind Variable Wind from NW
Gusts 25.3 mph

Today
High -- | Low -- °F
--% Chance of Precip.
Yesterday
High -- | Low -- °F
Precip. -- in
6:59 AM 5:00 PM
Waxing Crescent, 3% visible
Pressure 29.43 in
Visibility 5.0 miles
Clouds Scattered Clouds 800 ft
Overcast 1300 ft
Windchill 34 °F
Dew Point 41 °F
Humidity 92%
Rainfall 0.36 in
Snow Depth Not available.
UV 0 out of 12
Pollen .40 out of 12
Air Quality Not available.
Flu Activity Not available.
METAR KBBG 240455Z AUTO 31010G18KT 5SM -RA SCT008 OVC013 07/06 A2943 RMK AO2 P0008

More Conditions Fewer Conditions

Pressure 29.43 in
Visibility 5.0 miles
Clouds Scattered Clouds 800 ft
Overcast 1300 ft
Windchill 34 °F
Dew Point 41 °F
Humidity 92%
Rainfall 0.36 in
Snow Depth Not available.
UV 0 out of 12
Pollen .40 out of 12
Air Quality Not available.
Flu Activity Not available.
METAR KBBG 240455Z AUTO 31010G18KT 5SM -RA SCT008 OVC013 07/06 A2943 RMK AO2 P0008

More Conditions Fewer Conditions

10-Day Weather Forecast

Almanac

Astronomy

Nov. 23, 2014 Rise Set
Actual Time
Civil Twilight
Nautical Twilight
Astronomical Twilight
Moon
Length of Visible Light
Length of Day
Tomorrow will be .
, % of the Moon is Illuminated

Today's Extremes

State Highs State Lows

Community

WunderPhotos

Upload Photos

1,773,269 photos uploaded!

WunderBlogs® & News

Nearby

Air Quality

  Air Quality AQ Index Pollutant
Not available.

Snow Depth

Station Depth Elevation

Earthquake Activity

City Distance Mag. Time & Date
Minimum magnitude displayed is 2.5.

Coastal Water Temperatures

Place Temperature

Nearby Weather Stations